Main page
METAR-TAF:

METAR-TAF

Airports :

P11-b, Netherlands

Oil platform

latitude: 52-21-36N, longitude: 3-20-30E, elevation: 24 m

Current weather observation

The report was made 19 minutes ago, at 08:55 UTC
Wind 22 kt from the Southwest
Temperature 10°C
Humidity 87%
Pressure 1021 hPa
Visibility 10 km or more
Few clouds at a height of 2600 ft
Broken clouds at a height of 3100 ft
Broken clouds at a height of 3800 ft

METAR: EHPG 290855Z AUTO 22022KT 9999 FEW026 BKN031 BKN038 10/08 Q1021

Time: 11:14 (09:14 UTC)


TAF: missing

Weather observations and forecasts of more than 4000 airports (METAR and TAF reports).

The available stations are represented by yellow and red dots on the map.

Hover mouse over dot to see the name of the station.

Then click to see weather observations and forecasts.

To change the map : click on the green buttons with a black cross to zoom in, on the green button with a dash to zoom out, or on the green arrows for adjacent maps.


METAR-TAF: